sensor_id;sensor_type;location;lat;lon;timestamp;pressure;altitude;pressure_sealevel;temperature;humidity
72921;BME280;61064;51.654;5.476;2022-10-16T00:01:12;101035.34;;;13.43;80.66
72921;BME280;61064;51.654;5.476;2022-10-16T00:03:39;101038.88;;;13.50;80.54
72921;BME280;61064;51.654;5.476;2022-10-16T00:06:05;101049.59;;;13.53;80.71
72921;BME280;61064;51.654;5.476;2022-10-16T00:08:31;101022.88;;;13.38;80.75
72921;BME280;61064;51.654;5.476;2022-10-16T00:11:06;101039.78;;;13.44;80.87
72921;BME280;61064;51.654;5.476;2022-10-16T00:13:34;101030.00;;;13.43;80.83
72921;BME280;61064;51.654;5.476;2022-10-16T00:16:01;101046.91;;;13.50;81.02
72921;BME280;61064;51.654;5.476;2022-10-16T00:18:28;101044.25;;;13.48;81.13
72921;BME280;61064;51.654;5.476;2022-10-16T00:20:54;101009.56;;;13.22;81.04
72921;BME280;61064;51.654;5.476;2022-10-16T00:23:20;101010.47;;;13.18;81.21
72921;BME280;61064;51.654;5.476;2022-10-16T00:25:57;101014.91;;;13.22;81.20
72921;BME280;61064;51.654;5.476;2022-10-16T00:28:23;101032.69;;;13.34;81.26
72921;BME280;61064;51.654;5.476;2022-10-16T00:30:49;101010.44;;;13.15;81.34
72921;BME280;61064;51.654;5.476;2022-10-16T00:33:14;100977.53;;;12.98;81.21
72921;BME280;61064;51.654;5.476;2022-10-16T00:35:40;101023.81;;;13.24;81.31
72921;BME280;61064;51.654;5.476;2022-10-16T00:38:07;101035.38;;;13.32;81.34
72921;BME280;61064;51.654;5.476;2022-10-16T00:40:33;101023.78;;;13.27;81.47
72921;BME280;61064;51.654;5.476;2022-10-16T00:42:58;101014.00;;;13.16;81.44
72921;BME280;61064;51.654;5.476;2022-10-16T00:45:24;101038.94;;;13.36;81.46
72921;BME280;61064;51.654;5.476;2022-10-16T00:47:50;101031.81;;;13.33;81.43
72921;BME280;61064;51.654;5.476;2022-10-16T00:50:29;101062.06;;;13.43;81.34
72921;BME280;61064;51.654;5.476;2022-10-16T00:52:55;101055.88;;;13.37;81.24
72921;BME280;61064;51.654;5.476;2022-10-16T00:55:21;101053.16;;;13.38;81.24
72921;BME280;61064;51.654;5.476;2022-10-16T00:57:48;101060.31;;;13.41;81.49
72921;BME280;61064;51.654;5.476;2022-10-16T01:00:17;101067.44;;;13.40;81.43
72921;BME280;61064;51.654;5.476;2022-10-16T01:02:43;101043.41;;;13.28;81.68
72921;BME280;61064;51.654;5.476;2022-10-16T01:05:09;101049.63;;;13.27;81.66
72921;BME280;61064;51.654;5.476;2022-10-16T01:07:44;101039.84;;;13.24;81.81
72921;BME280;61064;51.654;5.476;2022-10-16T01:10:38;101046.97;;;13.30;81.89
72921;BME280;61064;51.654;5.476;2022-10-16T01:13:10;101043.38;;;13.26;81.81
72921;BME280;61064;51.654;5.476;2022-10-16T01:15:45;101042.50;;;13.27;82.05
72921;BME280;61064;51.654;5.476;2022-10-16T01:20:52;101055.88;;;13.24;82.04
72921;BME280;61064;51.654;5.476;2022-10-16T01:23:51;101062.13;;;13.25;82.16
72921;BME280;61064;51.654;5.476;2022-10-16T01:27:11;101055.88;;;13.24;82.08
72921;BME280;61064;51.654;5.476;2022-10-16T01:30:23;101071.88;;;13.21;82.26
72921;BME280;61064;51.654;5.476;2022-10-16T01:35:34;101056.75;;;13.23;82.38
72921;BME280;61064;51.654;5.476;2022-10-16T01:38:19;101025.56;;;13.10;82.27
72921;BME280;61064;51.654;5.476;2022-10-16T01:40:50;101057.66;;;13.22;82.28
72921;BME280;61064;51.654;5.476;2022-10-16T01:43:23;101052.31;;;13.22;82.38
72921;BME280;61064;51.654;5.476;2022-10-16T01:45:52;101047.84;;;13.17;82.42
72921;BME280;61064;51.654;5.476;2022-10-16T01:48:19;101063.88;;;13.21;82.41
72921;BME280;61064;51.654;5.476;2022-10-16T01:50:54;101073.66;;;13.21;82.59
72921;BME280;61064;51.654;5.476;2022-10-16T01:53:21;101054.09;;;13.20;82.56
72921;BME280;61064;51.654;5.476;2022-10-16T01:55:48;101055.88;;;13.20;82.58
72921;BME280;61064;51.654;5.476;2022-10-16T01:58:15;101025.56;;;13.06;82.75
72921;BME280;61064;51.654;5.476;2022-10-16T02:00:44;101053.19;;;13.21;82.85
72921;BME280;61064;51.654;5.476;2022-10-16T02:03:12;101000.66;;;12.88;82.76
72921;BME280;61064;51.654;5.476;2022-10-16T02:05:47;101057.63;;;13.21;82.80
72921;BME280;61064;51.654;5.476;2022-10-16T02:08:14;101080.81;;;13.22;82.72
72921;BME280;61064;51.654;5.476;2022-10-16T02:10:40;101050.53;;;13.09;82.74
72921;BME280;61064;51.654;5.476;2022-10-16T02:13:37;101076.38;;;13.19;82.97
72921;BME280;61064;51.654;5.476;2022-10-16T02:15:59;101062.13;;;13.13;82.92
72921;BME280;61064;51.654;5.476;2022-10-16T02:18:26;101049.63;;;13.07;82.82
72921;BME280;61064;51.654;5.476;2022-10-16T02:21:00;101071.91;;;13.24;82.90
72921;BME280;61064;51.654;5.476;2022-10-16T02:23:43;101028.28;;;12.98;82.70
72921;BME280;61064;51.654;5.476;2022-10-16T02:26:14;101051.44;;;13.19;82.73
72921;BME280;61064;51.654;5.476;2022-10-16T02:28:52;101058.53;;;13.17;82.78
72921;BME280;61064;51.654;5.476;2022-10-16T02:31:26;101047.84;;;13.15;82.76
72921;BME280;61064;51.654;5.476;2022-10-16T02:33:55;101062.13;;;13.19;82.69
72921;BME280;61064;51.654;5.476;2022-10-16T02:36:22;101057.69;;;13.15;82.81
72921;BME280;61064;51.654;5.476;2022-10-16T02:38:48;101052.28;;;13.10;82.65
72921;BME280;61064;51.654;5.476;2022-10-16T02:41:14;101070.13;;;13.17;82.82
72921;BME280;61064;51.654;5.476;2022-10-16T02:43:40;101058.50;;;13.05;82.62
72921;BME280;61064;51.654;5.476;2022-10-16T02:46:05;101069.22;;;13.09;82.84
72921;BME280;61064;51.654;5.476;2022-10-16T02:48:31;101075.44;;;13.11;82.89
72921;BME280;61064;51.654;5.476;2022-10-16T02:50:57;101070.09;;;13.11;82.93
72921;BME280;61064;51.654;5.476;2022-10-16T02:53:24;101059.44;;;13.04;82.98
72921;BME280;61064;51.654;5.476;2022-10-16T02:55:49;101069.19;;;13.05;83.01
72921;BME280;61064;51.654;5.476;2022-10-16T02:58:14;101021.16;;;12.80;83.09
72921;BME280;61064;51.654;5.476;2022-10-16T03:00:40;101035.38;;;12.88;83.01
72921;BME280;61064;51.654;5.476;2022-10-16T03:03:06;101045.16;;;12.94;83.18
72921;BME280;61064;51.654;5.476;2022-10-16T03:05:31;101030.94;;;12.86;83.12
72921;BME280;61064;51.654;5.476;2022-10-16T03:07:58;101070.97;;;13.00;83.18
72921;BME280;61064;51.654;5.476;2022-10-16T03:10:26;101071.88;;;12.94;83.17
72921;BME280;61064;51.654;5.476;2022-10-16T03:12:51;101056.75;;;12.85;83.25
72921;BME280;61064;51.654;5.476;2022-10-16T03:15:17;101060.28;;;12.83;83.25
72921;BME280;61064;51.654;5.476;2022-10-16T03:17:42;101030.91;;;12.71;83.30
72921;BME280;61064;51.654;5.476;2022-10-16T03:20:09;101038.03;;;12.66;83.21
72921;BME280;61064;51.654;5.476;2022-10-16T03:22:34;101040.69;;;12.67;83.66
72921;BME280;61064;51.654;5.476;2022-10-16T03:25:00;101053.16;;;12.68;83.41
72921;BME280;61064;51.654;5.476;2022-10-16T03:27:26;101042.47;;;12.62;83.50
72921;BME280;61064;51.654;5.476;2022-10-16T03:29:51;101066.50;;;12.62;83.49
72921;BME280;61064;51.654;5.476;2022-10-16T03:32:16;101090.56;;;12.74;83.63
72921;BME280;61064;51.654;5.476;2022-10-16T03:34:42;101089.66;;;12.68;83.50
72921;BME280;61064;51.654;5.476;2022-10-16T03:37:07;101062.03;;;12.57;83.62
72921;BME280;61064;51.654;5.476;2022-10-16T03:39:33;101100.34;;;12.80;83.71
72921;BME280;61064;51.654;5.476;2022-10-16T03:41:58;101077.16;;;12.65;83.75
72921;BME280;61064;51.654;5.476;2022-10-16T03:44:23;101079.84;;;12.71;83.70
72921;BME280;61064;51.654;5.476;2022-10-16T03:46:49;101052.25;;;12.56;83.81
72921;BME280;61064;51.654;5.476;2022-10-16T03:49:14;101095.88;;;12.77;83.77
72921;BME280;61064;51.654;5.476;2022-10-16T03:51:40;101076.31;;;12.63;83.69
72921;BME280;61064;51.654;5.476;2022-10-16T03:54:06;101069.19;;;12.62;83.91
72921;BME280;61064;51.654;5.476;2022-10-16T03:56:31;101087.88;;;12.70;83.88
72921;BME280;61064;51.654;5.476;2022-10-16T03:58:59;101109.25;;;12.79;83.88
72921;BME280;61064;51.654;5.476;2022-10-16T04:01:24;101099.44;;;12.72;84.02
72921;BME280;61064;51.654;5.476;2022-10-16T04:03:50;101114.59;;;12.79;83.95
72921;BME280;61064;51.654;5.476;2022-10-16T04:06:15;101081.63;;;12.59;84.02
72921;BME280;61064;51.654;5.476;2022-10-16T04:08:44;101095.00;;;12.65;83.97
72921;BME280;61064;51.654;5.476;2022-10-16T04:11:10;101077.16;;;12.61;83.74
72921;BME280;61064;51.654;5.476;2022-10-16T04:13:36;101104.78;;;12.72;84.05
72921;BME280;61064;51.654;5.476;2022-10-16T04:16:02;101104.78;;;12.72;84.17
72921;BME280;61064;51.654;5.476;2022-10-16T04:18:29;101115.47;;;12.78;84.09
72921;BME280;61064;51.654;5.476;2022-10-16T04:20:54;101094.06;;;12.66;84.08
72921;BME280;61064;51.654;5.476;2022-10-16T04:23:20;101115.47;;;12.78;83.92
72921;BME280;61064;51.654;5.476;2022-10-16T04:25:48;101090.53;;;12.67;84.11
72921;BME280;61064;51.654;5.476;2022-10-16T04:28:13;101126.19;;;12.87;84.07
72921;BME280;61064;51.654;5.476;2022-10-16T04:30:39;101096.75;;;12.72;83.96
72921;BME280;61064;51.654;5.476;2022-10-16T04:33:04;101120.81;;;12.78;84.08
72921;BME280;61064;51.654;5.476;2022-10-16T04:35:30;101112.78;;;12.78;84.12
72921;BME280;61064;51.654;5.476;2022-10-16T04:37:59;101128.84;;;12.87;84.08
72921;BME280;61064;51.654;5.476;2022-10-16T04:40:25;101107.44;;;12.72;84.20
72921;BME280;61064;51.654;5.476;2022-10-16T04:42:51;101111.03;;;12.74;84.08
72921;BME280;61064;51.654;5.476;2022-10-16T04:45:16;101118.13;;;12.73;84.04
72921;BME280;61064;51.654;5.476;2022-10-16T04:47:42;101098.53;;;12.62;84.31
72921;BME280;61064;51.654;5.476;2022-10-16T04:50:07;101125.25;;;12.77;84.02
72921;BME280;61064;51.654;5.476;2022-10-16T04:52:33;101134.19;;;12.81;84.49
72921;BME280;61064;51.654;5.476;2022-10-16T04:54:58;101116.34;;;12.71;84.23
72921;BME280;61064;51.654;5.476;2022-10-16T04:57:27;101151.97;;;12.85;84.40
72921;BME280;61064;51.654;5.476;2022-10-16T04:59:53;101157.31;;;12.79;84.20
72921;BME280;61064;51.654;5.476;2022-10-16T05:02:18;101145.72;;;12.72;84.29
72921;BME280;61064;51.654;5.476;2022-10-16T05:04:43;101128.78;;;12.63;84.38
72921;BME280;61064;51.654;5.476;2022-10-16T05:07:09;101169.78;;;12.81;84.40
72921;BME280;61064;51.654;5.476;2022-10-16T05:09:34;101167.09;;;12.75;84.37
72921;BME280;61064;51.654;5.476;2022-10-16T05:12:01;101152.81;;;12.72;84.48
72921;BME280;61064;51.654;5.476;2022-10-16T05:14:28;101154.63;;;12.73;84.41
72921;BME280;61064;51.654;5.476;2022-10-16T05:16:55;101127.00;;;12.59;84.49
72921;BME280;61064;51.654;5.476;2022-10-16T05:19:20;101176.00;;;12.79;84.54
72921;BME280;61064;51.654;5.476;2022-10-16T05:21:46;101129.66;;;12.56;84.45
72921;BME280;61064;51.654;5.476;2022-10-16T05:24:11;101163.50;;;12.69;84.54
72921;BME280;61064;51.654;5.476;2022-10-16T05:26:37;101152.78;;;12.57;84.54
72921;BME280;61064;51.654;5.476;2022-10-16T05:29:02;101185.72;;;12.66;84.70
72921;BME280;61064;51.654;5.476;2022-10-16T05:31:28;101134.03;;;12.38;84.60
72921;BME280;61064;51.654;5.476;2022-10-16T05:33:58;101165.22;;;12.47;84.81
72921;BME280;61064;51.654;5.476;2022-10-16T05:36:24;101183.97;;;12.59;84.71
72921;BME280;61064;51.654;5.476;2022-10-16T05:38:50;101174.13;;;12.47;84.79
72921;BME280;61064;51.654;5.476;2022-10-16T05:41:18;101189.25;;;12.55;84.94
72921;BME280;61064;51.654;5.476;2022-10-16T05:43:50;101220.47;;;12.72;84.96
72921;BME280;61064;51.654;5.476;2022-10-16T05:46:16;101224.94;;;12.70;84.98
72921;BME280;61064;51.654;5.476;2022-10-16T05:48:41;101189.22;;;12.48;84.91
72921;BME280;61064;51.654;5.476;2022-10-16T05:51:09;101232.91;;;12.69;85.06
72921;BME280;61064;51.654;5.476;2022-10-16T05:53:37;101203.47;;;12.47;84.98
72921;BME280;61064;51.654;5.476;2022-10-16T05:56:03;101249.81;;;12.68;85.09
72921;BME280;61064;51.654;5.476;2022-10-16T05:58:34;101244.47;;;12.63;85.17
72921;BME280;61064;51.654;5.476;2022-10-16T06:01:06;101239.09;;;12.56;85.01
72921;BME280;61064;51.654;5.476;2022-10-16T06:03:33;101255.16;;;12.65;85.17
72921;BME280;61064;51.654;5.476;2022-10-16T06:05:59;101258.69;;;12.61;85.12
72921;BME280;61064;51.654;5.476;2022-10-16T06:08:33;101247.09;;;12.57;85.29
72921;BME280;61064;51.654;5.476;2022-10-16T06:11:06;101237.25;;;12.42;85.26
72921;BME280;61064;51.654;5.476;2022-10-16T06:13:32;101255.06;;;12.54;85.33
72921;BME280;61064;51.654;5.476;2022-10-16T06:15:58;101261.28;;;12.50;85.21
72921;BME280;61064;51.654;5.476;2022-10-16T06:18:25;101281.81;;;12.60;85.32
72921;BME280;61064;51.654;5.476;2022-10-16T06:20:50;101236.31;;;12.36;85.56
72921;BME280;61064;51.654;5.476;2022-10-16T06:23:15;101283.53;;;12.50;85.24
72921;BME280;61064;51.654;5.476;2022-10-16T06:25:41;101278.19;;;12.47;85.34
72921;BME280;61064;51.654;5.476;2022-10-16T06:28:06;101248.75;;;12.29;85.32
72921;BME280;61064;51.654;5.476;2022-10-16T06:30:32;101291.59;;;12.54;85.52
72921;BME280;61064;51.654;5.476;2022-10-16T06:32:57;101254.94;;;12.28;85.52
72921;BME280;61064;51.654;5.476;2022-10-16T06:35:22;101259.44;;;12.31;85.54
72921;BME280;61064;51.654;5.476;2022-10-16T06:37:49;101310.25;;;12.52;85.54
72921;BME280;61064;51.654;5.476;2022-10-16T06:40:14;101314.66;;;12.50;85.64
72921;BME280;61064;51.654;5.476;2022-10-16T06:42:40;101272.72;;;12.25;85.68
72921;BME280;61064;51.654;5.476;2022-10-16T06:45:06;101285.22;;;12.30;85.90
72921;BME280;61064;51.654;5.476;2022-10-16T06:47:31;101287.94;;;12.41;85.90
72921;BME280;61064;51.654;5.476;2022-10-16T06:49:57;101308.50;;;12.59;85.96
72921;BME280;61064;51.654;5.476;2022-10-16T06:52:22;101317.44;;;12.67;85.95
72921;BME280;61064;51.654;5.476;2022-10-16T06:54:47;101324.59;;;12.74;85.74
72921;BME280;61064;51.654;5.476;2022-10-16T06:57:13;101329.13;;;12.87;85.84
72921;BME280;61064;51.654;5.476;2022-10-16T06:59:38;101302.34;;;12.76;85.69
72921;BME280;61064;51.654;5.476;2022-10-16T07:02:03;101304.16;;;12.80;85.71
72921;BME280;61064;51.654;5.476;2022-10-16T07:04:29;101299.75;;;12.87;85.82
72921;BME280;61064;51.654;5.476;2022-10-16T07:06:54;101345.28;;;13.13;85.83
72921;BME280;61064;51.654;5.476;2022-10-16T07:09:19;101322.06;;;13.04;85.62
72921;BME280;61064;51.654;5.476;2022-10-16T07:11:45;101345.31;;;13.23;85.71
72921;BME280;61064;51.654;5.476;2022-10-16T07:14:16;101330.16;;;13.21;85.65
72921;BME280;61064;51.654;5.476;2022-10-16T07:16:42;101328.41;;;13.24;85.43
72921;BME280;61064;51.654;5.476;2022-10-16T07:19:08;101357.88;;;13.46;85.49
72921;BME280;61064;51.654;5.476;2022-10-16T07:21:34;101344.50;;;13.50;85.34
72921;BME280;61064;51.654;5.476;2022-10-16T07:24:04;101347.19;;;13.56;85.32
72921;BME280;61064;51.654;5.476;2022-10-16T07:26:33;101374.00;;;13.79;85.26
72921;BME280;61064;51.654;5.476;2022-10-16T07:28:58;101369.53;;;13.80;84.90
72921;BME280;61064;51.654;5.476;2022-10-16T07:31:25;101384.69;;;13.88;84.78
72921;BME280;61064;51.654;5.476;2022-10-16T07:33:51;101380.25;;;13.92;84.73
72921;BME280;61064;51.654;5.476;2022-10-16T07:36:17;101400.75;;;14.05;84.62
72921;BME280;61064;51.654;5.476;2022-10-16T07:38:44;101356.16;;;13.95;84.52
72921;BME280;61064;51.654;5.476;2022-10-16T07:41:14;101376.72;;;14.08;84.17
72921;BME280;61064;51.654;5.476;2022-10-16T07:43:48;101388.31;;;14.21;84.13
72921;BME280;61064;51.654;5.476;2022-10-16T07:46:14;101377.59;;;14.19;83.94
72921;BME280;61064;51.654;5.476;2022-10-16T07:48:40;101383.84;;;14.26;83.96
72921;BME280;61064;51.654;5.476;2022-10-16T07:51:06;101377.59;;;14.31;83.59
72921;BME280;61064;51.654;5.476;2022-10-16T07:53:33;101396.38;;;14.42;83.35
72921;BME280;61064;51.654;5.476;2022-10-16T07:56:03;101407.06;;;14.54;83.23
72921;BME280;61064;51.654;5.476;2022-10-16T07:58:30;101406.19;;;14.60;83.17
72921;BME280;61064;51.654;5.476;2022-10-16T08:00:56;101391.00;;;14.52;82.93
72921;BME280;61064;51.654;5.476;2022-10-16T08:03:22;101410.63;;;14.64;82.58
72921;BME280;61064;51.654;5.476;2022-10-16T08:05:47;101411.50;;;14.63;82.63
72921;BME280;61064;51.654;5.476;2022-10-16T08:08:14;101425.81;;;14.63;82.52
72921;BME280;61064;51.654;5.476;2022-10-16T08:10:39;101426.72;;;14.53;82.41
72921;BME280;61064;51.654;5.476;2022-10-16T08:13:05;101402.59;;;14.38;82.53
72921;BME280;61064;51.654;5.476;2022-10-16T08:15:30;101422.25;;;14.43;82.63
72921;BME280;61064;51.654;5.476;2022-10-16T08:18:02;101463.28;;;14.69;82.54
72921;BME280;61064;51.654;5.476;2022-10-16T08:20:29;101431.16;;;14.55;82.50
72921;BME280;61064;51.654;5.476;2022-10-16T08:22:55;101462.38;;;14.79;82.47
72921;BME280;61064;51.654;5.476;2022-10-16T08:25:22;101436.50;;;14.69;82.44
72921;BME280;61064;51.654;5.476;2022-10-16T08:27:48;101471.31;;;14.84;82.24
72921;BME280;61064;51.654;5.476;2022-10-16T08:30:14;101443.63;;;14.79;82.00
72921;BME280;61064;51.654;5.476;2022-10-16T08:32:40;101446.34;;;14.76;81.86
72921;BME280;61064;51.654;5.476;2022-10-16T08:35:08;101472.22;;;14.92;81.68
72921;BME280;61064;51.654;5.476;2022-10-16T08:37:34;101486.47;;;15.04;81.56
72921;BME280;61064;51.654;5.476;2022-10-16T08:40:00;101472.16;;;15.00;81.54
72921;BME280;61064;51.654;5.476;2022-10-16T08:42:47;101482.88;;;15.14;81.47
72921;BME280;61064;51.654;5.476;2022-10-16T08:45:33;101483.78;;;15.14;81.15
72921;BME280;61064;51.654;5.476;2022-10-16T08:48:13;101458.75;;;15.06;81.11
72921;BME280;61064;51.654;5.476;2022-10-16T08:50:40;101477.50;;;15.24;81.06
72921;BME280;61064;51.654;5.476;2022-10-16T08:53:06;101494.41;;;15.38;80.89
72921;BME280;61064;51.654;5.476;2022-10-16T08:58:17;101508.72;;;15.48;80.73
72921;BME280;61064;51.654;5.476;2022-10-16T09:00:46;101502.44;;;15.51;80.56
72921;BME280;61064;51.654;5.476;2022-10-16T09:03:23;101516.75;;;15.65;80.64
72921;BME280;61064;51.654;5.476;2022-10-16T09:11:55;101505.88;;;15.92;79.94
72921;BME280;61064;51.654;5.476;2022-10-16T09:14:50;101504.97;;;15.99;79.86
72921;BME280;61064;51.654;5.476;2022-10-16T09:20:49;101522.72;;;16.20;79.27
72921;BME280;61064;51.654;5.476;2022-10-16T09:23:26;101528.03;;;16.28;79.03
72921;BME280;61064;51.654;5.476;2022-10-16T09:25:53;101522.59;;;16.40;78.47
72921;BME280;61064;51.654;5.476;2022-10-16T09:28:19;101526.13;;;16.46;78.08
72921;BME280;61064;51.654;5.476;2022-10-16T09:30:45;101518.03;;;16.54;78.08
72921;BME280;61064;51.654;5.476;2022-10-16T09:33:14;101533.19;;;16.69;77.61
72921;BME280;61064;51.654;5.476;2022-10-16T09:35:46;101522.44;;;16.69;76.94
72921;BME280;61064;51.654;5.476;2022-10-16T09:38:26;101517.03;;;16.72;76.83
72921;BME280;61064;51.654;5.476;2022-10-16T09:40:53;101517.84;;;16.83;76.44
72921;BME280;61064;51.654;5.476;2022-10-16T09:43:40;101536.53;;;16.96;76.45
72921;BME280;61064;51.654;5.476;2022-10-16T09:46:09;101523.06;;;16.99;76.05
72921;BME280;61064;51.654;5.476;2022-10-16T09:48:48;101533.72;;;17.10;75.63
72921;BME280;61064;51.654;5.476;2022-10-16T09:51:21;101526.47;;;17.17;75.48
72921;BME280;61064;51.654;5.476;2022-10-16T09:53:47;101504.06;;;17.18;75.49
72921;BME280;61064;51.654;5.476;2022-10-16T09:56:23;101542.25;;;17.53;74.78
72921;BME280;61064;51.654;5.476;2022-10-16T09:58:54;101507.38;;;17.44;74.72
72921;BME280;61064;51.654;5.476;2022-10-16T10:01:20;101530.44;;;17.69;74.37
72921;BME280;61064;51.654;5.476;2022-10-16T10:03:48;101543.75;;;17.81;74.23
72921;BME280;61064;51.654;5.476;2022-10-16T10:06:20;101543.69;;;17.86;73.84
72921;BME280;61064;51.654;5.476;2022-10-16T10:09:17;101534.66;;;17.90;73.96
72921;BME280;61064;51.654;5.476;2022-10-16T10:11:59;101541.72;;;17.99;73.53
72921;BME280;61064;51.654;5.476;2022-10-16T10:17:02;101518.63;;;17.79;73.23
72921;BME280;61064;51.654;5.476;2022-10-16T10:22:26;101555.81;;;18.17;73.01
72921;BME280;61064;51.654;5.476;2022-10-16T10:25:15;101553.03;;;18.25;72.64
72921;BME280;61064;51.654;5.476;2022-10-16T10:30:59;101563.66;;;18.37;71.93
72921;BME280;61064;51.654;5.476;2022-10-16T10:33:46;101571.56;;;18.48;71.48
72921;BME280;61064;51.654;5.476;2022-10-16T10:36:41;101568.03;;;18.44;71.32
72921;BME280;61064;51.654;5.476;2022-10-16T10:39:22;101563.44;;;18.51;70.82
72921;BME280;61064;51.654;5.476;2022-10-16T10:42:15;101566.97;;;18.56;70.23
72921;BME280;61064;51.654;5.476;2022-10-16T10:47:47;101569.66;;;18.57;70.09
72921;BME280;61064;51.654;5.476;2022-10-16T10:53:18;101569.69;;;18.53;69.02
72921;BME280;61064;51.654;5.476;2022-10-16T10:56:10;101572.41;;;18.54;69.34
72921;BME280;61064;51.654;5.476;2022-10-16T10:59:09;101578.50;;;18.67;69.36
72921;BME280;61064;51.654;5.476;2022-10-16T11:01:52;101569.41;;;18.74;68.72
72921;BME280;61064;51.654;5.476;2022-10-16T11:05:10;101589.00;;;18.87;68.21
72921;BME280;61064;51.654;5.476;2022-10-16T11:07:47;101590.88;;;18.80;67.57
72921;BME280;61064;51.654;5.476;2022-10-16T11:10:23;101595.41;;;18.78;67.49
72921;BME280;61064;51.654;5.476;2022-10-16T11:13:47;101577.59;;;18.68;67.24
72921;BME280;61064;51.654;5.476;2022-10-16T11:15:48;101575.91;;;18.61;67.22
72921;BME280;61064;51.654;5.476;2022-10-16T11:21:07;101581.34;;;18.58;67.36
72921;BME280;61064;51.654;5.476;2022-10-16T11:23:58;101595.59;;;18.66;67.53
72921;BME280;61064;51.654;5.476;2022-10-16T11:26:35;101578.44;;;18.72;67.20
72921;BME280;61064;51.654;5.476;2022-10-16T11:29:20;101586.31;;;18.85;67.29
72921;BME280;61064;51.654;5.476;2022-10-16T11:31:51;101580.72;;;18.99;66.25
72921;BME280;61064;51.654;5.476;2022-10-16T11:34:30;101570.81;;;18.99;66.62
72921;BME280;61064;51.654;5.476;2022-10-16T11:37:03;101586.53;;;19.27;65.87
72921;BME280;61064;51.654;5.476;2022-10-16T11:39:33;101589.88;;;19.39;65.58
72921;BME280;61064;51.654;5.476;2022-10-16T11:42:08;101590.72;;;19.43;65.38
72921;BME280;61064;51.654;5.476;2022-10-16T11:49:31;101599.66;;;19.48;64.51
72921;BME280;61064;51.654;5.476;2022-10-16T11:52:07;101596.16;;;19.41;64.71
72921;BME280;61064;51.654;5.476;2022-10-16T11:57:21;101605.16;;;19.40;64.73
72921;BME280;61064;51.654;5.476;2022-10-16T11:59:52;101586.47;;;19.30;64.44
72921;BME280;61064;51.654;5.476;2022-10-16T12:02:55;101606.03;;;19.42;64.66
72921;BME280;61064;51.654;5.476;2022-10-16T12:08:13;101606.75;;;19.55;64.14
72921;BME280;61064;51.654;5.476;2022-10-16T12:10:41;101603.78;;;19.67;64.08
72921;BME280;61064;51.654;5.476;2022-10-16T12:13:37;101592.72;;;19.81;63.84
72921;BME280;61064;51.654;5.476;2022-10-16T12:16:24;101583.41;;;19.96;63.67
72921;BME280;61064;51.654;5.476;2022-10-16T12:19:35;101602.69;;;20.22;63.55
72921;BME280;61064;51.654;5.476;2022-10-16T12:21:59;101602.31;;;20.40;63.16
72921;BME280;61064;51.654;5.476;2022-10-16T12:24:35;101611.78;;;20.61;62.78
72921;BME280;61064;51.654;5.476;2022-10-16T12:27:03;101601.66;;;20.69;61.95
72921;BME280;61064;51.654;5.476;2022-10-16T12:29:33;101606.09;;;20.73;61.28
72921;BME280;61064;51.654;5.476;2022-10-16T12:32:00;101597.16;;;20.69;60.87
72921;BME280;61064;51.654;5.476;2022-10-16T12:34:41;101603.31;;;20.76;60.03
72921;BME280;61064;51.654;5.476;2022-10-16T12:37:25;101610.63;;;20.71;60.09
72921;BME280;61064;51.654;5.476;2022-10-16T12:39:53;101616.03;;;20.72;59.54
72921;BME280;61064;51.654;5.476;2022-10-16T12:44:51;101608.38;;;20.51;58.98
72921;BME280;61064;51.654;5.476;2022-10-16T12:47:24;101605.19;;;20.31;58.90
72921;BME280;61064;51.654;5.476;2022-10-16T12:49:59;101579.53;;;20.10;59.31
72921;BME280;61064;51.654;5.476;2022-10-16T12:52:47;101588.69;;;20.03;59.61
72921;BME280;61064;51.654;5.476;2022-10-16T12:55:16;101604.88;;;20.05;59.89
72921;BME280;61064;51.654;5.476;2022-10-16T13:00:33;101616.69;;;19.98;59.81
72921;BME280;61064;51.654;5.476;2022-10-16T13:12:19;101606.22;;;20.25;60.07
72921;BME280;61064;51.654;5.476;2022-10-16T13:22:47;101619.19;;;20.08;59.68
72921;BME280;61064;51.654;5.476;2022-10-16T13:28:07;101613.22;;;19.92;59.68
72921;BME280;61064;51.654;5.476;2022-10-16T13:30:40;101607.00;;;19.89;59.66
72921;BME280;61064;51.654;5.476;2022-10-16T13:33:14;101617.63;;;19.97;59.54
72921;BME280;61064;51.654;5.476;2022-10-16T13:35:53;101619.31;;;20.01;59.74
72921;BME280;61064;51.654;5.476;2022-10-16T13:38:21;101626.47;;;20.05;59.40
72921;BME280;61064;51.654;5.476;2022-10-16T13:40:53;101628.38;;;20.00;58.88
72921;BME280;61064;51.654;5.476;2022-10-16T13:43:27;101629.41;;;19.92;58.84
72921;BME280;61064;51.654;5.476;2022-10-16T13:45:56;101614.25;;;19.85;59.13
72921;BME280;61064;51.654;5.476;2022-10-16T13:48:22;101622.19;;;19.95;59.43
72921;BME280;61064;51.654;5.476;2022-10-16T13:51:12;101630.00;;;20.08;59.44
72921;BME280;61064;51.654;5.476;2022-10-16T13:53:39;101615.59;;;20.08;59.20
72921;BME280;61064;51.654;5.476;2022-10-16T13:56:07;101595.13;;;19.96;59.41
72921;BME280;61064;51.654;5.476;2022-10-16T13:58:36;101626.22;;;20.17;59.27
72921;BME280;61064;51.654;5.476;2022-10-16T14:01:04;101602.25;;;20.00;59.14
72921;BME280;61064;51.654;5.476;2022-10-16T14:03:33;101619.16;;;20.10;59.34
72921;BME280;61064;51.654;5.476;2022-10-16T14:06:03;101629.13;;;20.06;58.68
72921;BME280;61064;51.654;5.476;2022-10-16T14:08:31;101608.00;;;19.83;59.05
72921;BME280;61064;51.654;5.476;2022-10-16T14:10:59;101632.13;;;19.92;59.14
72921;BME280;61064;51.654;5.476;2022-10-16T14:13:39;101637.53;;;19.91;59.11
72921;BME280;61064;51.654;5.476;2022-10-16T14:16:33;101642.03;;;19.90;59.42
72921;BME280;61064;51.654;5.476;2022-10-16T14:19:02;101624.88;;;19.95;59.06